Time;durP1;ratioP1;P1;durP2;ratioP2;P2;SDS_P1;SDS_P2;PMS_P1;PMS_P2;Temp;Humidity;BMP_temperature;BMP_pressure;BME280_temperature;BME280_humidity;BME280_pressure;Samples;Min_cycle;Max_cycle;Signal;HPM_P1;HPM_P2
2022/02/25 00:00:21;;;;;;;5.28;2.97;;;;;;;1.39;100.00;100988.00;676276;29;1907;-79
2022/02/25 00:00:42;;;;;;;5.50;3.13;;;;;;;1.36;100.00;100981.03;681271;29;1270;-79
2022/02/25 00:01:09;;;;;;;6.70;3.40;;;;;;;1.30;100.00;100947.31;676117;29;1258;-79
2022/02/25 00:01:32;;;;;;;5.82;3.13;;;;;;;1.36;100.00;100959.56;670487;29;5792;-79
2022/02/25 00:01:55;;;;;;;6.53;2.90;;;;;;;1.36;100.00;100986.19;674515;29;1608;-79
2022/02/25 00:02:25;;;;;;;6.53;3.28;;;;;;;1.40;100.00;100960.53;674042;29;901;-79
2022/02/25 00:02:46;;;;;;;5.35;3.20;;;;;;;1.38;100.00;100987.94;678204;29;1552;-79
2022/02/25 00:03:09;;;;;;;7.90;3.10;;;;;;;1.36;100.00;100986.19;678042;29;1300;-79
2022/02/25 00:03:35;;;;;;;7.25;3.40;;;;;;;1.34;100.00;100956.91;676015;29;3389;-79
2022/02/25 00:03:55;;;;;;;6.85;3.20;;;;;;;1.32;100.00;100978.28;672611;29;2128;-79
2022/02/25 00:04:23;;;;;;;7.43;3.35;;;;;;;1.29;100.00;100991.91;673187;29;4467;-79
2022/02/25 00:04:47;;;;;;;6.85;3.28;;;;;;;1.28;100.00;100976.41;676285;29;1564;-79
2022/02/25 00:05:12;;;;;;;4.95;2.97;;;;;;;1.28;100.00;100977.28;677527;29;1460;-79
2022/02/25 00:05:34;;;;;;;6.25;3.38;;;;;;;1.28;100.00;100981.56;679603;29;3519;-79
2022/02/25 00:05:57;;;;;;;5.60;3.60;;;;;;;1.27;100.00;100980.66;680636;28;3594;-78
2022/02/25 00:06:19;;;;;;;5.63;3.22;;;;;;;1.32;100.00;100963.69;674467;29;1452;-79
2022/02/25 00:06:40;;;;;;;6.65;3.40;;;;;;;1.27;100.00;100962.63;673605;29;915;-79
2022/02/25 00:07:15;;;;;;;5.93;3.30;;;;;;;1.28;100.00;100992.72;676144;29;1249;-79
2022/02/25 00:07:41;;;;;;;6.68;3.70;;;;;;;1.26;100.00;100963.47;677649;29;5245;-79
2022/02/25 00:08:05;;;;;;;5.93;3.58;;;;;;;1.23;100.00;100999.41;675513;29;1449;-79
2022/02/25 00:08:32;;;;;;;5.90;3.10;;;;;;;1.24;100.00;100984.84;677680;29;1797;-79
2022/02/25 00:08:58;;;;;;;6.05;3.55;;;;;;;1.23;100.00;100963.34;676550;29;3422;-79
2022/02/25 00:09:19;;;;;;;6.45;3.60;;;;;;;1.23;100.00;100996.81;678713;29;1001;-79
2022/02/25 00:09:45;;;;;;;6.82;3.60;;;;;;;1.23;100.00;100989.09;678661;29;1487;-79
2022/02/25 00:10:10;;;;;;;6.90;3.85;;;;;;;1.21;100.00;101008.78;679293;29;1855;-79
2022/02/25 00:10:39;;;;;;;7.00;3.60;;;;;;;1.24;100.00;100997.72;673504;29;4379;-79
2022/02/25 00:11:04;;;;;;;6.47;3.60;;;;;;;1.21;100.00;100997.59;679426;29;1065;-79
2022/02/25 00:11:44;;;;;;;6.35;3.60;;;;;;;1.19;100.00;100979.50;674884;29;3303;-79
2022/02/25 00:12:05;;;;;;;6.40;3.70;;;;;;;1.17;100.00;100988.88;675349;29;1575;-79
2022/02/25 00:12:26;;;;;;;7.10;3.63;;;;;;;1.17;100.00;100978.56;675785;29;1185;-79
2022/02/25 00:12:49;;;;;;;7.65;3.58;;;;;;;1.17;100.00;100976.00;674535;29;1254;-78
2022/02/25 00:13:10;;;;;;;9.13;4.00;;;;;;;1.15;100.00;100995.66;674110;29;897;-79
2022/02/25 00:13:33;;;;;;;9.07;3.90;;;;;;;1.10;100.00;100992.03;673485;29;4338;-79
2022/02/25 00:13:59;;;;;;;9.63;4.30;;;;;;;1.09;100.00;100979.97;676457;29;1177;-79
2022/02/25 00:14:32;;;;;;;7.72;3.60;;;;;;;1.07;100.00;100976.47;677870;29;3170;-79
2022/02/25 00:14:54;;;;;;;5.95;3.40;;;;;;;1.07;100.00;100961.03;675963;29;1356;-79
2022/02/25 00:15:18;;;;;;;6.38;3.50;;;;;;;1.09;100.00;100964.53;676234;29;3542;-79
2022/02/25 00:15:39;;;;;;;7.35;3.67;;;;;;;1.11;100.00;100962.88;678795;29;1411;-79
2022/02/25 00:15:59;;;;;;;7.65;3.88;;;;;;;1.08;100.00;100983.34;675930;29;1222;-79
2022/02/25 00:16:21;;;;;;;7.22;3.88;;;;;;;1.06;100.00;100987.59;674705;29;4555;-78
2022/02/25 00:16:41;;;;;;;6.80;3.75;;;;;;;1.06;100.00;100990.16;673378;29;1199;-79
2022/02/25 00:17:35;;;;;;;6.15;3.50;;;;;;;0.99;100.00;100989.91;675356;29;1141;-79
2022/02/25 00:17:56;;;;;;;7.88;3.88;;;;;;;1.01;100.00;100969.34;675884;29;3517;-79
2022/02/25 00:18:16;;;;;;;8.82;4.05;;;;;;;1.05;100.00;100991.84;675353;29;1761;-79
2022/02/25 00:18:37;;;;;;;7.70;3.50;;;;;;;1.04;100.00;100972.06;675824;29;1329;-79
2022/02/25 00:19:04;;;;;;;6.53;3.53;;;;;;;0.99;100.00;100974.44;676893;29;1011;-79
2022/02/25 00:19:35;;;;;;;6.93;4.10;;;;;;;0.95;100.00;100993.16;674680;29;4291;-78
2022/02/25 00:19:58;;;;;;;8.57;3.90;;;;;;;0.91;100.00;100980.13;677650;29;926;-79
2022/02/25 00:20:21;;;;;;;8.00;3.80;;;;;;;0.87;100.00;100973.97;678217;29;1958;-79
2022/02/25 00:20:46;;;;;;;9.18;4.13;;;;;;;0.85;100.00;100967.91;678319;29;1321;-79
2022/02/25 00:21:09;;;;;;;9.65;4.20;;;;;;;0.84;100.00;100984.16;676401;29;3918;-79
2022/02/25 00:21:52;;;;;;;9.85;4.03;;;;;;;0.90;100.00;100994.72;682139;29;1351;-79
2022/02/25 00:22:16;;;;;;;9.30;4.32;;;;;;;0.91;100.00;100977.56;678636;29;1379;-79
2022/02/25 00:22:53;;;;;;;8.25;4.43;;;;;;;0.90;100.00;100994.72;678839;28;4920;-79
2022/02/25 00:23:22;;;;;;;7.90;4.10;;;;;;;0.93;100.00;101002.53;680375;29;801;-79
2022/02/25 00:23:45;;;;;;;11.15;4.60;;;;;;;0.93;100.00;100976.81;677702;29;3711;-78
2022/02/25 00:24:09;;;;;;;8.10;4.35;;;;;;;0.94;100.00;100995.69;682030;28;1611;-78
2022/02/25 00:24:33;;;;;;;7.88;4.30;;;;;;;0.94;100.00;100970.84;682092;29;916;-79
2022/02/25 00:25:22;;;;;;;8.40;4.10;;;;;;;0.95;100.00;100972.56;680053;29;1269;-79
2022/02/25 00:25:42;;;;;;;7.63;4.38;;;;;;;0.94;100.00;100983.72;659531;29;4748;-78
2022/02/25 00:26:05;;;;;;;8.98;4.28;;;;;;;0.87;100.00;100999.72;671545;29;1447;-79
2022/02/25 00:26:49;;;;;;;7.95;4.05;;;;;;;0.90;100.00;100979.25;670479;29;2815;-79
2022/02/25 00:27:13;;;;;;;9.07;4.15;;;;;;;0.87;100.00;100997.13;675660;29;1707;-79
2022/02/25 00:27:47;;;;;;;7.32;4.07;;;;;;;0.89;100.00;101005.81;678250;29;1114;-79
2022/02/25 00:28:12;;;;;;;7.15;3.80;;;;;;;0.82;100.00;100986.66;676960;29;866;-79
2022/02/25 00:28:35;;;;;;;8.38;4.20;;;;;;;0.78;100.00;100987.34;673218;29;4960;-78
2022/02/25 00:28:55;;;;;;;8.85;4.68;;;;;;;0.79;100.00;100981.41;674341;29;1551;-79
2022/02/25 00:29:19;;;;;;;8.98;4.70;;;;;;;0.78;100.00;101004.50;672623;29;3373;-79
2022/02/25 00:29:45;;;;;;;8.02;4.22;;;;;;;0.81;100.00;101004.63;672433;29;3896;-79
2022/02/25 00:30:12;;;;;;;9.23;4.57;;;;;;;0.80;100.00;101008.91;675613;29;1187;-79
2022/02/25 00:30:43;;;;;;;9.77;4.53;;;;;;;0.76;100.00;101009.59;679352;29;1404;-79
2022/02/25 00:31:09;;;;;;;9.65;4.40;;;;;;;0.74;100.00;101002.63;676660;28;1300;-79
2022/02/25 00:31:33;;;;;;;8.95;4.40;;;;;;;0.73;100.00;101008.59;678286;29;4326;-79
2022/02/25 00:32:01;;;;;;;8.32;4.32;;;;;;;0.73;100.00;100994.00;682299;28;1225;-79
2022/02/25 00:32:25;;;;;;;9.48;4.20;;;;;;;0.78;100.00;100999.34;675429;29;1828;-79
2022/02/25 00:32:49;;;;;;;7.00;3.90;;;;;;;0.88;100.00;101023.78;676792;29;1208;-79
2022/02/25 00:33:16;;;;;;;7.15;3.80;;;;;;;0.86;100.00;100997.97;674560;29;1413;-79
2022/02/25 00:33:40;;;;;;;7.50;3.97;;;;;;;0.87;100.00;100994.56;679088;29;1462;-78
2022/02/25 00:34:01;;;;;;;8.85;4.00;;;;;;;0.83;100.00;100997.81;678541;29;1591;-79
2022/02/25 00:34:21;;;;;;;8.82;4.07;;;;;;;0.81;100.00;101020.94;677780;29;4454;-79
2022/02/25 00:34:47;;;;;;;8.63;4.28;;;;;;;0.79;100.00;101009.72;680556;29;1487;-79
2022/02/25 00:35:28;;;;;;;8.63;4.10;;;;;;;0.79;100.00;101006.25;675221;29;2186;-79
2022/02/25 00:35:56;;;;;;;7.50;4.10;;;;;;;0.75;100.00;101009.50;678525;29;1477;-79
2022/02/25 00:36:17;;;;;;;9.23;4.10;;;;;;;0.76;100.00;101006.13;682086;28;1268;-79
2022/02/25 00:36:41;;;;;;;7.60;4.07;;;;;;;0.77;100.00;100989.88;682385;28;821;-79
2022/02/25 00:37:02;;;;;;;8.45;4.10;;;;;;;0.76;100.00;101014.75;680880;28;1480;-80
2022/02/25 00:37:23;;;;;;;8.90;4.00;;;;;;;0.75;100.00;100984.66;672260;28;4327;-79
2022/02/25 00:37:44;;;;;;;7.75;3.90;;;;;;;0.76;100.00;101011.28;682109;29;1266;-79
2022/02/25 00:38:13;;;;;;;7.63;4.40;;;;;;;0.71;100.00;100990.50;679470;29;3009;-79
2022/02/25 00:38:34;;;;;;;7.78;4.38;;;;;;;0.71;100.00;101003.38;676732;29;1430;-78
2022/02/25 00:38:57;;;;;;;6.63;3.95;;;;;;;0.72;100.00;101025.72;675714;29;3756;-79
2022/02/25 00:39:21;;;;;;;9.18;4.57;;;;;;;0.67;100.00;101004.94;675014;29;952;-79
2022/02/25 00:39:41;;;;;;;9.50;4.80;;;;;;;0.68;100.00;101008.41;675442;29;1911;-78
2022/02/25 00:40:09;;;;;;;10.00;4.53;;;;;;;0.71;100.00;100992.19;675217;29;1389;-79
2022/02/25 00:40:40;;;;;;;8.23;3.83;;;;;;;0.73;100.00;100996.56;674753;29;4300;-79
2022/02/25 00:41:01;;;;;;;9.68;4.30;;;;;;;0.72;100.00;101018.00;678088;29;2071;-78
2022/02/25 00:41:22;;;;;;;7.53;4.05;;;;;;;0.74;100.00;101008.63;675752;29;2360;-79
2022/02/25 00:41:51;;;;;;;8.70;4.25;;;;;;;0.73;100.00;101021.44;676569;29;1525;-79
2022/02/25 00:42:14;;;;;;;10.90;4.53;;;;;;;0.70;100.00;101016.19;676244;29;1251;-79
2022/02/25 00:42:34;;;;;;;10.60;4.47;;;;;;;0.70;100.00;101013.59;673789;29;4630;-78
2022/02/25 00:42:55;;;;;;;11.50;4.63;;;;;;;0.67;100.00;101025.53;671808;29;1317;-79
2022/02/25 00:43:16;;;;;;;11.20;4.38;;;;;;;0.68;100.00;101013.56;672560;29;4337;-79
2022/02/25 00:43:39;;;;;;;11.73;4.18;;;;;;;0.66;100.00;101020.31;673461;29;842;-79
2022/02/25 00:44:03;;;;;;;9.40;4.18;;;;;;;0.66;100.00;100989.44;675949;29;3148;-79
2022/02/25 00:44:26;;;;;;;9.25;4.47;;;;;;;0.67;100.00;100989.50;674860;29;3142;-79
2022/02/25 00:44:57;;;;;;;9.52;4.47;;;;;;;0.71;100.00;101015.34;673418;29;1108;-78
2022/02/25 00:45:20;;;;;;;10.73;4.47;;;;;;;0.72;100.00;101002.56;670884;29;1082;-79
2022/02/25 00:45:41;;;;;;;10.82;4.60;;;;;;;0.75;100.00;100994.06;675321;29;1377;-79
2022/02/25 00:46:05;;;;;;;10.50;4.45;;;;;;;0.76;100.00;100990.69;678931;29;1249;-78
2022/02/25 00:46:25;;;;;;;10.82;4.85;;;;;;;0.77;100.00;100995.03;675346;29;4354;-78
2022/02/25 00:46:58;;;;;;;11.32;4.95;;;;;;;0.74;100.00;100992.34;676760;29;990;-79
2022/02/25 00:47:22;;;;;;;10.93;4.55;;;;;;;0.76;100.00;101016.41;676722;29;1704;-79
2022/02/25 00:47:57;;;;;;;12.00;4.50;;;;;;;0.75;100.00;101035.25;674733;29;2134;-79
2022/02/25 00:48:23;;;;;;;9.90;4.25;;;;;;;0.74;100.00;101018.06;675935;29;1525;-79
2022/02/25 00:48:49;;;;;;;9.10;4.23;;;;;;;0.74;100.00;101006.06;677066;29;1411;-79
2022/02/25 00:49:41;;;;;;;8.68;3.90;;;;;;;0.88;100.00;101024.63;673225;29;5094;-79
2022/02/25 00:50:08;;;;;;;8.70;3.63;;;;;;;0.85;100.00;101027.09;679864;29;3169;-78
2022/02/25 00:50:30;;;;;;;7.57;3.60;;;;;;;0.82;100.00;101001.25;678893;28;1479;-79
2022/02/25 00:50:53;;;;;;;7.68;3.90;;;;;;;0.84;100.00;101007.31;677566;29;1356;-79
2022/02/25 00:51:22;;;;;;;8.93;4.05;;;;;;;0.85;100.00;101004.78;673843;29;1411;-79
2022/02/25 00:51:45;;;;;;;7.80;4.00;;;;;;;0.90;100.00;101025.59;672378;29;1237;-78
2022/02/25 00:52:11;;;;;;;7.68;3.70;;;;;;;0.92;100.00;101036.81;676865;29;1522;-79
2022/02/25 00:52:40;;;;;;;8.02;3.80;;;;;;;0.87;100.00;101022.88;669768;29;4363;-79
2022/02/25 00:53:01;;;;;;;9.98;4.00;;;;;;;0.81;100.00;101025.22;680341;28;1871;-78
2022/02/25 00:53:21;;;;;;;9.98;4.60;;;;;;;0.85;100.00;101016.81;681730;29;1560;-79
2022/02/25 00:53:45;;;;;;;8.77;4.70;;;;;;;0.86;100.00;101010.84;678952;28;1312;-79
2022/02/25 00:54:06;;;;;;;8.07;3.67;;;;;;;0.83;100.00;101021.00;681977;29;844;-79
2022/02/25 00:54:29;;;;;;;10.45;3.90;;;;;;;0.83;100.00;101033.88;677950;29;1425;-79
2022/02/25 00:54:50;;;;;;;8.20;3.88;;;;;;;0.81;100.00;101026.09;674354;29;1267;-79
2022/02/25 00:55:17;;;;;;;9.70;3.75;;;;;;;0.83;100.00;101049.31;676653;29;4359;-79
2022/02/25 00:55:48;;;;;;;8.18;3.70;;;;;;;0.85;100.00;101014.22;673917;29;1356;-79
2022/02/25 00:56:12;;;;;;;8.57;3.80;;;;;;;0.78;100.00;101002.81;679328;29;1355;-79
2022/02/25 00:56:37;;;;;;;7.38;3.60;;;;;;;0.81;100.00;101033.81;674341;29;3712;-78
2022/02/25 00:56:57;;;;;;;7.78;3.83;;;;;;;0.77;100.00;101047.34;674430;29;1288;-79
2022/02/25 00:57:26;;;;;;;7.82;3.92;;;;;;;0.72;100.00;101025.72;678848;29;1158;-80
2022/02/25 00:57:53;;;;;;;8.40;3.50;;;;;;;0.73;100.00;101042.03;679534;28;1627;-80
2022/02/25 00:58:21;;;;;;;8.10;3.53;;;;;;;0.73;100.00;101036.88;678884;29;4373;-78
2022/02/25 00:58:49;;;;;;;7.05;3.28;;;;;;;0.71;100.00;101034.25;677287;29;1449;-79
2022/02/25 00:59:13;;;;;;;8.68;3.80;;;;;;;0.73;100.00;101009.44;678809;29;3363;-79
2022/02/25 00:59:45;;;;;;;7.72;3.30;;;;;;;0.74;100.00;101012.91;680948;28;1903;-81
2022/02/25 01:00:08;;;;;;;7.07;3.38;;;;;;;0.76;100.00;101042.16;681800;29;1257;-79
2022/02/25 01:00:39;;;;;;;7.93;3.50;;;;;;;0.77;100.00;101039.63;681726;28;1295;-78
2022/02/25 01:01:03;;;;;;;6.22;3.30;;;;;;;0.71;100.00;101041.06;673349;29;928;-78
2022/02/25 01:01:26;;;;;;;7.35;3.13;;;;;;;0.75;100.00;101012.97;675742;29;4424;-78
2022/02/25 01:02:08;;;;;;;6.30;3.00;;;;;;;0.78;100.00;101014.81;676988;29;3180;-79
2022/02/25 01:02:32;;;;;;;6.68;3.05;;;;;;;0.79;100.00;101035.44;676588;29;1022;-79
2022/02/25 01:03:03;;;;;;;8.05;3.30;;;;;;;0.76;100.00;101047.31;677846;29;947;-79
2022/02/25 01:03:29;;;;;;;7.22;3.30;;;;;;;0.72;100.00;101025.72;678830;29;1432;-78
2022/02/25 01:03:55;;;;;;;7.53;3.30;;;;;;;0.77;100.00;101028.47;678332;29;969;-79
2022/02/25 01:04:21;;;;;;;6.03;3.28;;;;;;;0.76;100.00;101045.63;665978;29;4350;-79
2022/02/25 01:04:42;;;;;;;7.15;3.40;;;;;;;0.72;100.00;101054.03;678904;29;3589;-78
2022/02/25 01:05:11;;;;;;;7.28;3.22;;;;;;;0.71;100.00;101048.78;675944;29;2211;-78
2022/02/25 01:05:35;;;;;;;8.73;3.10;;;;;;;0.71;100.00;101020.50;678546;29;2773;-79
2022/02/25 01:05:58;;;;;;;7.90;2.95;;;;;;;0.68;100.00;101054.72;678865;29;1030;-79
2022/02/25 01:06:33;;;;;;;7.65;2.85;;;;;;;0.70;100.00;101047.94;676261;29;1186;-78
2022/02/25 01:07:01;;;;;;;8.73;3.50;;;;;;;0.70;100.00;101047.06;680924;28;1330;-79
2022/02/25 01:07:25;;;;;;;8.27;3.17;;;;;;;0.70;100.00;101047.06;675998;29;4546;-79
2022/02/25 01:07:49;;;;;;;9.77;3.20;;;;;;;0.71;100.00;101028.22;675534;29;3709;-79
2022/02/25 01:08:15;;;;;;;7.22;3.25;;;;;;;0.72;100.00;101060.84;672457;29;1487;-79
2022/02/25 01:08:36;;;;;;;6.88;3.10;;;;;;;0.67;100.00;101051.25;675193;29;1218;-78
2022/02/25 01:08:59;;;;;;;7.30;2.80;;;;;;;0.63;100.00;101039.06;673149;29;1272;-79
2022/02/25 01:09:26;;;;;;;10.75;3.75;;;;;;;0.61;100.00;101022.72;675120;29;956;-79
2022/02/25 01:09:52;;;;;;;7.82;3.28;;;;;;;0.62;100.00;101064.75;674611;29;1393;-79
2022/02/25 01:10:19;;;;;;;8.20;3.20;;;;;;;0.65;100.00;101036.56;676643;29;1474;-79
2022/02/25 01:10:39;;;;;;;7.57;3.08;;;;;;;0.62;100.00;101029.63;667854;29;4973;-78
2022/02/25 01:11:03;;;;;;;9.18;3.17;;;;;;;0.64;100.00;101069.16;677074;29;1539;-79
2022/02/25 01:11:23;;;;;;;7.95;3.10;;;;;;;0.64;100.00;101052.84;675851;29;1063;-78
2022/02/25 01:11:49;;;;;;;9.27;3.10;;;;;;;0.63;100.00;101031.34;676502;29;1449;-78
2022/02/25 01:12:11;;;;;;;7.85;2.90;;;;;;;0.65;100.00;101039.13;675559;29;1495;-78
2022/02/25 01:12:31;;;;;;;7.32;2.80;;;;;;;0.65;100.00;101062.28;674059;29;1280;-79
2022/02/25 01:13:10;;;;;;;8.93;2.97;;;;;;;0.64;100.00;101063.13;673667;29;3035;-79
2022/02/25 01:13:41;;;;;;;7.50;2.88;;;;;;;0.65;100.00;101028.84;677481;29;4879;-79
2022/02/25 01:14:06;;;;;;;6.45;2.67;;;;;;;0.67;100.00;101043.53;677687;29;1303;-78
2022/02/25 01:14:32;;;;;;;7.95;2.72;;;;;;;0.69;100.00;101041.00;683048;28;1232;-78
2022/02/25 01:15:10;;;;;;;8.15;2.88;;;;;;;0.72;100.00;101037.69;675938;29;1299;-78
2022/02/25 01:15:46;;;;;;;8.73;2.95;;;;;;;0.72;100.00;101030.88;675259;29;1229;-79
2022/02/25 01:16:15;;;;;;;7.38;2.88;;;;;;;0.73;100.00;101057.47;667327;29;4405;-78
2022/02/25 01:16:41;;;;;;;8.70;2.88;;;;;;;0.75;100.00;101058.41;677739;29;4075;-78
2022/02/25 01:17:11;;;;;;;7.32;2.70;;;;;;;0.73;100.00;101058.34;679211;29;1015;-79
2022/02/25 01:17:37;;;;;;;9.30;3.00;;;;;;;0.69;100.00;101033.28;678678;29;1367;-79
2022/02/25 01:17:58;;;;;;;7.57;2.92;;;;;;;0.67;100.00;101058.97;677232;29;1723;-79
2022/02/25 01:18:21;;;;;;;7.97;2.78;;;;;;;0.70;100.00;101065.94;677860;29;1289;-79
2022/02/25 01:18:57;;;;;;;7.05;2.53;;;;;;;0.72;100.00;101063.44;675682;29;1287;-78
2022/02/25 01:19:18;;;;;;;8.27;2.60;;;;;;;0.69;100.00;101079.63;675586;29;4395;-79
2022/02/25 01:19:41;;;;;;;7.47;2.90;;;;;;;0.65;100.00;101037.47;675516;29;1946;-78
2022/02/25 01:20:04;;;;;;;7.10;2.90;;;;;;;0.66;100.00;101067.50;675844;29;1110;-79
2022/02/25 01:20:25;;;;;;;8.20;2.50;;;;;;;0.66;100.00;101059.78;680199;29;935;-79
2022/02/25 01:20:48;;;;;;;6.87;2.70;;;;;;;0.67;100.00;101051.25;675541;28;1185;-78
2022/02/25 01:21:12;;;;;;;6.65;2.40;;;;;;;0.71;100.00;101087.41;675521;29;1827;-78
2022/02/25 01:21:35;;;;;;;6.97;2.47;;;;;;;0.66;100.00;101079.50;675840;29;1238;-79
2022/02/25 01:21:56;;;;;;;8.30;2.70;;;;;;;0.66;100.00;101069.19;677041;29;1452;-79
2022/02/25 01:22:19;;;;;;;7.43;2.63;;;;;;;0.66;100.00;101057.19;678022;29;4424;-79
2022/02/25 01:22:44;;;;;;;6.97;2.65;;;;;;;0.64;100.00;101043.41;676555;29;1482;-78
2022/02/25 01:23:09;;;;;;;6.85;2.40;;;;;;;0.64;100.00;101069.16;676030;29;1184;-78
2022/02/25 01:23:29;;;;;;;8.70;2.53;;;;;;;0.66;100.00;101057.19;676168;29;1373;-78
2022/02/25 01:23:50;;;;;;;6.50;2.37;;;;;;;0.67;100.00;101064.13;675490;29;854;-78
2022/02/25 01:24:25;;;;;;;8.13;2.30;;;;;;;0.64;100.00;101048.56;674506;29;1209;-78
2022/02/25 01:24:49;;;;;;;6.88;2.70;;;;;;;0.65;100.00;101076.06;677647;29;1632;-78
2022/02/25 01:25:15;;;;;;;6.78;2.80;;;;;;;0.63;100.00;101058.78;676277;29;3957;-79
2022/02/25 01:25:39;;;;;;;8.23;2.50;;;;;;;0.63;100.00;101082.81;677987;29;4977;-79
2022/02/25 01:26:05;;;;;;;6.68;2.72;;;;;;;0.61;100.00;101051.00;678242;29;1425;-78
2022/02/25 01:26:31;;;;;;;7.03;2.65;;;;;;;0.60;100.00;101067.25;677904;29;1407;-78
2022/02/25 01:26:51;;;;;;;7.13;2.63;;;;;;;0.63;100.00;101071.66;677349;29;903;-78
2022/02/25 01:27:19;;;;;;;5.80;2.40;;;;;;;0.65;100.00;101075.16;676299;29;1159;-79
2022/02/25 01:27:41;;;;;;;8.32;2.78;;;;;;;0.64;100.00;101043.41;679724;29;2314;-79
2022/02/25 01:28:07;;;;;;;7.82;2.80;;;;;;;0.67;100.00;101082.13;677582;29;1188;-78
2022/02/25 01:28:27;;;;;;;8.55;2.83;;;;;;;0.67;100.00;101078.69;674915;29;4280;-78
2022/02/25 01:28:52;;;;;;;7.05;2.40;;;;;;;0.64;100.00;101074.28;674494;29;1222;-78
2022/02/25 01:29:13;;;;;;;6.00;2.40;;;;;;;0.59;100.00;101075.78;671631;29;1073;-79
2022/02/25 01:29:37;;;;;;;5.10;2.57;;;;;;;0.61;100.00;101074.16;675835;29;1316;-78
2022/02/25 01:30:03;;;;;;;7.45;2.55;;;;;;;0.64;100.00;101058.84;675458;29;1179;-79
2022/02/25 01:30:24;;;;;;;7.10;2.53;;;;;;;0.63;100.00;101075.09;677213;29;3771;-78
2022/02/25 01:30:45;;;;;;;6.63;2.35;;;;;;;0.62;100.00;101046.72;677400;29;1421;-78
2022/02/25 01:31:10;;;;;;;7.17;2.43;;;;;;;0.59;100.00;101060.34;677359;29;1376;-78
2022/02/25 01:31:31;;;;;;;6.57;2.40;;;;;;;0.61;100.00;101074.16;677630;29;4331;-79
2022/02/25 01:31:59;;;;;;;7.00;2.70;;;;;;;0.62;100.00;101078.50;678735;29;1207;-80
2022/02/25 01:32:24;;;;;;;8.88;2.90;;;;;;;0.70;100.00;101078.81;674331;29;1331;-79
2022/02/25 01:32:45;;;;;;;8.85;2.63;;;;;;;0.88;100.00;101060.69;676413;29;1332;-79
2022/02/25 01:33:12;;;;;;;8.13;2.60;;;;;;;0.93;100.00;101072.06;675921;29;1873;-78
2022/02/25 01:33:32;;;;;;;7.13;2.72;;;;;;;0.94;100.00;101088.38;678624;29;1449;-79
2022/02/25 01:33:56;;;;;;;7.97;3.03;;;;;;;0.85;100.00;101061.44;676154;29;3768;-79
2022/02/25 01:34:19;;;;;;;8.45;2.70;;;;;;;0.85;100.00;101086.31;671907;29;4306;-78
2022/02/25 01:34:42;;;;;;;7.53;2.60;;;;;;;0.80;100.00;101054.34;678893;29;1207;-79
2022/02/25 01:35:03;;;;;;;8.90;2.67;;;;;;;0.77;100.00;101077.38;676825;29;1560;-78
2022/02/25 01:35:27;;;;;;;7.50;2.95;;;;;;;0.74;100.00;101077.25;676673;29;1443;-79
2022/02/25 01:35:48;;;;;;;9.10;2.70;;;;;;;0.73;100.00;101078.94;675983;29;3276;-78
2022/02/25 01:36:11;;;;;;;8.50;2.70;;;;;;;0.73;100.00;101078.94;679170;29;3599;-78
2022/02/25 01:36:32;;;;;;;8.55;2.58;;;;;;;0.75;100.00;101060.97;678009;29;1117;-78
2022/02/25 01:36:58;;;;;;;10.07;3.03;;;;;;;0.67;100.00;101056.41;678417;29;1103;-78
2022/02/25 01:37:21;;;;;;;6.28;2.60;;;;;;;0.68;100.00;101086.47;673644;29;4360;-78
2022/02/25 01:37:51;;;;;;;8.45;2.67;;;;;;;0.61;100.00;101069.03;678212;29;1306;-79
2022/02/25 01:38:17;;;;;;;8.88;3.15;;;;;;;0.59;100.00;101075.78;679271;29;1277;-78
2022/02/25 01:38:46;;;;;;;8.35;2.53;;;;;;;0.53;100.00;101090.97;676044;29;3447;-79
2022/02/25 01:39:07;;;;;;;9.85;2.95;;;;;;;0.56;100.00;101083.38;676565;29;3692;-79
2022/02/25 01:39:35;;;;;;;7.68;2.78;;;;;;;0.55;100.00;101071.31;675729;29;1956;-79
2022/02/25 01:39:58;;;;;;;10.40;3.20;;;;;;;0.59;100.00;101062.03;673781;29;1259;-79
2022/02/25 01:40:25;;;;;;;8.43;2.75;;;;;;;0.52;100.00;101053.19;674108;29;4308;-79
2022/02/25 01:40:46;;;;;;;9.35;2.88;;;;;;;0.54;100.00;101056.72;673020;29;1033;-79
2022/02/25 01:41:07;;;;;;;7.57;2.73;;;;;;;0.70;100.00;101078.81;673222;29;1485;-79
2022/02/25 01:41:34;;;;;;;6.68;2.88;;;;;;;0.76;100.00;101070.47;673503;29;3831;-78
2022/02/25 01:41:58;;;;;;;6.30;2.25;;;;;;;0.76;100.00;101065.31;675014;29;1267;-79
2022/02/25 01:42:24;;;;;;;9.05;2.83;;;;;;;0.70;100.00;101063.38;678426;29;1515;-79
2022/02/25 01:42:51;;;;;;;9.13;2.72;;;;;;;0.66;100.00;101087.22;677398;29;1631;-78
2022/02/25 01:43:21;;;;;;;6.85;2.70;;;;;;;0.63;100.00;101084.53;669648;29;4296;-79
2022/02/25 01:43:49;;;;;;;7.07;2.70;;;;;;;0.57;100.00;101092.84;676000;29;1298;-80
2022/02/25 01:44:22;;;;;;;6.97;2.70;;;;;;;0.54;100.00;101059.28;680386;29;1278;-79
2022/02/25 01:44:43;;;;;;;8.13;2.85;;;;;;;0.52;100.00;101054.88;680999;28;3497;-79
2022/02/25 01:45:05;;;;;;;8.02;2.72;;;;;;;0.55;100.00;101057.59;683627;28;1554;-79
2022/02/25 01:45:28;;;;;;;9.57;2.70;;;;;;;0.47;100.00;101054.66;678081;29;1384;-78
2022/02/25 01:45:57;;;;;;;9.55;2.63;;;;;;;0.47;100.00;101081.28;673277;29;1320;-78
2022/02/25 01:46:24;;;;;;;8.07;2.97;;;;;;;0.48;100.00;101092.47;673141;29;4325;-78
2022/02/25 01:46:46;;;;;;;9.50;3.20;;;;;;;0.45;100.00;101059.75;676074;29;2166;-79
2022/02/25 01:47:11;;;;;;;7.53;2.70;;;;;;;0.46;100.00;101058.09;680134;29;3678;-79
2022/02/25 01:47:39;;;;;;;8.32;2.70;;;;;;;0.58;100.00;101061.19;679196;29;4280;-79
2022/02/25 01:48:08;;;;;;;8.90;2.80;;;;;;;0.57;100.00;101077.41;677662;29;1108;-78
2022/02/25 01:48:33;;;;;;;6.60;2.55;;;;;;;0.52;100.00;101068.63;679515;29;1198;-80
2022/02/25 01:48:57;;;;;;;6.40;2.50;;;;;;;0.48;100.00;101077.03;682161;28;1260;-79
2022/02/25 01:49:24;;;;;;;7.78;2.55;;;;;;;0.46;100.00;101084.69;677564;29;4391;-79
2022/02/25 01:49:47;;;;;;;6.75;2.35;;;;;;;0.47;100.00;101071.00;681383;28;1303;-78
2022/02/25 01:50:09;;;;;;;7.10;2.47;;;;;;;0.47;100.00;101058.16;677613;29;4073;-79
2022/02/25 01:50:33;;;;;;;8.30;2.50;;;;;;;0.47;100.00;101057.25;678927;29;1343;-79
2022/02/25 01:51:00;;;;;;;9.88;2.60;;;;;;;0.44;100.00;101076.00;679124;29;1273;-79
2022/02/25 01:51:23;;;;;;;8.05;2.90;;;;;;;0.44;100.00;101095.72;680330;29;1435;-79
2022/02/25 01:51:45;;;;;;;8.95;2.80;;;;;;;0.58;100.00;101078.28;677016;29;1440;-79
2022/02/25 01:52:13;;;;;;;7.35;2.80;;;;;;;0.85;100.00;101083.72;677415;29;1292;-79
2022/02/25 01:52:51;;;;;;;8.55;2.80;;;;;;;0.82;100.00;101089.63;674940;29;4784;-79
2022/02/25 01:53:12;;;;;;;7.90;2.55;;;;;;;0.86;100.00;101054.59;676500;29;3871;-79
2022/02/25 01:53:35;;;;;;;8.15;2.40;;;;;;;0.95;100.00;101084.97;679002;29;1636;-79
2022/02/25 01:54:07;;;;;;;8.85;2.50;;;;;;;0.99;100.00;101082.59;677608;29;1199;-78
2022/02/25 01:54:30;;;;;;;6.88;2.33;;;;;;;0.98;100.00;101067.97;679123;29;1139;-79
2022/02/25 01:54:53;;;;;;;6.20;2.20;;;;;;;0.91;100.00;101068.53;677987;29;1085;-78
2022/02/25 01:55:17;;;;;;;8.30;2.30;;;;;;;0.87;100.00;101092.38;673528;29;4401;-79
2022/02/25 01:55:39;;;;;;;8.15;2.67;;;;;;;0.84;100.00;101074.25;673622;29;3660;-78
2022/02/25 01:56:03;;;;;;;7.55;2.50;;;;;;;0.94;100.00;101060.03;673185;29;1716;-79
2022/02/25 01:56:27;;;;;;;7.22;2.42;;;;;;;1.02;100.00;101061.25;676024;29;1761;-79
2022/02/25 01:56:51;;;;;;;7.70;2.60;;;;;;;1.03;100.00;101099.06;678447;29;1266;-78
2022/02/25 01:57:17;;;;;;;7.88;2.33;;;;;;;1.00;100.00;101066.31;681198;29;1302;-79
2022/02/25 01:57:47;;;;;;;11.02;2.50;;;;;;;0.97;100.00;101101.34;676224;29;1282;-78
2022/02/25 01:58:14;;;;;;;6.13;2.40;;;;;;;0.95;100.00;101097.84;677649;29;1183;-79
2022/02/25 01:58:37;;;;;;;8.77;2.72;;;;;;;0.89;100.00;101101.06;674327;29;5097;-79
2022/02/25 01:59:01;;;;;;;7.68;2.36;;;;;;;0.89;100.00;101088.19;676722;29;1295;-78
2022/02/25 01:59:35;;;;;;;8.00;2.70;;;;;;;0.85;100.00;101091.44;677250;29;1258;-78
2022/02/25 01:59:59;;;;;;;8.50;3.20;;;;;;;0.85;100.00;101063.13;681793;28;1029;-79
2022/02/25 02:00:27;;;;;;;8.00;2.67;;;;;;;0.84;100.00;101074.25;678930;29;1283;-79
2022/02/25 02:00:59;;;;;;;7.78;2.60;;;;;;;0.80;100.00;101067.19;678304;29;1639;-79
2022/02/25 02:01:25;;;;;;;9.50;2.63;;;;;;;0.91;100.00;101089.13;670997;29;4354;-78